This is the latest recevied weather packets stored in our database for station/object AC4AG. If no packets are shown the sender has not sent any weather packets the latest 1 day(s).
| Time | Temp. | Humidity | Pressure | Rain* | Wind** | Luminosity | Snow |
|---|---|---|---|---|---|---|---|
| 1836274790 | 18.33° C | 93% | 1017.7 hPa | 0 mm | 0.45 m/s, 99° | 0 W/m² | - |
| 1836274488 | 18.33° C | 91% | 1017.7 hPa | 0 mm | 0 m/s | 0 W/m² | - |
| 1836274342 | 18.33° C | 94% | 1018 hPa | 0 mm | 0.45 m/s, 101° | 0 W/m² | - |
| 1836274187 | 18.33° C | 90% | 1017.6 hPa | 0 mm | 0 m/s | 0 W/m² | - |
| 1836273886 | 18.33° C | 89% | 1017.6 hPa | 0 mm | 0 m/s | 0 W/m² | - |
| 1778060647 | 15° C | 99% | 1007.6 hPa | 22.86 mm | 1.34 m/s, 256° | 0 W/m² | - |
| 1778060344 | 15° C | 99% | 1007.5 hPa | 18.03 mm | 2.24 m/s, 234° | 0 W/m² | - |
| 1778060041 | 15° C | 99% | 1007.8 hPa | 14.99 mm | 1.34 m/s, 201° | 0 W/m² | - |
| 1778059739 | 15° C | 99% | 1007.6 hPa | 15.49 mm | 1.79 m/s, 290° | 0 W/m² | - |
| 1778059437 | 15° C | 99% | 1007.7 hPa | 8.89 mm | 1.79 m/s, 215° | 0 W/m² | - |
| 1778059133 | 15° C | 99% | 1007.4 hPa | 4.83 mm | 1.34 m/s, 205° | 0 W/m² | - |
| 1778058831 | 15° C | 99% | 1007.1 hPa | 0 mm | 1.34 m/s, 136° | 0 W/m² | - |
| 1778058528 | 15° C | 99% | 1007 hPa | 1.27 mm | 1.34 m/s, 203° | 0 W/m² | - |
| 1778058226 | 15° C | 99% | 1007.1 hPa | 1.27 mm | 0.89 m/s, 190° | 0 W/m² | - |
| 1778057922 | 15° C | 99% | 1007 hPa | 1.27 mm | 3.13 m/s, 203° | 0 W/m² | - |
| 1778057618 | 15° C | 99% | 1007.2 hPa | 0 mm | 1.79 m/s, 190° | 0 W/m² | - |
| 1778057315 | 15° C | 99% | 1007 hPa | 0 mm | 2.24 m/s, 207° | 0 W/m² | - |
| 1778057012 | 15° C | 99% | 1006.7 hPa | 1.78 mm | 1.34 m/s, 202° | 0 W/m² | - |
| 1778056708 | 15.56° C | 99% | 1006.6 hPa | 1.78 mm | 1.34 m/s, 178° | 0 W/m² | - |
| 1778056406 | 15.56° C | 97% | 1006.5 hPa | 3.05 mm | 1.79 m/s, 219° | 0 W/m² | - |
| 1778056103 | 15.56° C | 96% | 1006.5 hPa | 3.05 mm | 1.79 m/s, 208° | 0 W/m² | - |
| 1778055800 | 15.56° C | 94% | 1006.5 hPa | 1.78 mm | 1.79 m/s, 158° | 0 W/m² | - |
| 1778055496 | 15.56° C | 95% | 1006.3 hPa | 0 mm | 1.34 m/s, 185° | 0 W/m² | - |
| 1778055194 | 15.56° C | 95% | 1006.3 hPa | 0 mm | 0.89 m/s, 191° | 0 W/m² | - |
| 1778054892 | 15.56° C | 95% | 1006.4 hPa | 0 mm | 1.34 m/s, 206° | 0 W/m² | - |
* Rain latest hour (hover to see other rain measurements)
** Current wind speed in m/s (hover to see current wind gust speed)